createdAt,value
2018-07-19T00:01:57.709Z,20.22
2018-07-19T00:04:28.004Z,20.20
2018-07-19T00:06:57.475Z,20.20
2018-07-19T00:09:26.530Z,20.19
2018-07-19T00:11:55.533Z,20.17
2018-07-19T00:14:24.582Z,20.15
2018-07-19T00:16:54.435Z,20.11
2018-07-19T00:19:23.284Z,20.05
2018-07-19T00:21:52.807Z,19.99
2018-07-19T00:24:21.799Z,19.92
2018-07-19T00:26:50.563Z,19.88
2018-07-19T00:29:19.415Z,19.81
2018-07-19T00:31:48.906Z,19.81
2018-07-19T00:34:18.190Z,19.79
2018-07-19T00:36:46.943Z,19.79
2018-07-19T00:39:16.432Z,19.78
2018-07-19T00:41:46.705Z,19.79
2018-07-19T00:44:16.874Z,19.84
2018-07-19T00:46:46.259Z,19.86
2018-07-19T00:49:15.098Z,19.88
2018-07-19T00:51:44.003Z,19.89
2018-07-19T00:54:12.847Z,19.89
2018-07-19T00:56:42.661Z,19.90
2018-07-19T00:59:11.450Z,19.93
2018-07-19T01:01:41.386Z,19.89
2018-07-19T01:04:10.899Z,19.88
2018-07-19T01:06:39.675Z,19.88
2018-07-19T01:09:10.591Z,19.85
2018-07-19T01:11:39.661Z,19.80
2018-07-19T01:14:08.735Z,19.80
2018-07-19T01:16:38.190Z,19.80
2018-07-19T01:19:07.007Z,19.79
2018-07-19T01:21:36.446Z,19.78
2018-07-19T01:24:05.332Z,19.81
2018-07-19T01:26:34.161Z,19.80
2018-07-19T01:29:03.320Z,19.81
2018-07-19T01:31:32.434Z,19.82
2018-07-19T01:34:01.579Z,19.82
2018-07-19T01:36:30.855Z,19.82
2018-07-19T01:39:00.502Z,19.81
2018-07-19T01:42:18.764Z,19.79
2018-07-19T01:44:47.530Z,19.76
2018-07-19T01:47:16.340Z,19.76
2018-07-19T01:49:45.971Z,19.80
2018-07-19T01:52:15.220Z,19.79
2018-07-19T01:54:44.189Z,19.80
2018-07-19T01:57:14.709Z,19.85
2018-07-19T01:59:44.067Z,19.90
2018-07-19T02:02:13.753Z,19.95
2018-07-19T02:04:43.356Z,19.99
2018-07-19T02:07:12.224Z,20.04
2018-07-19T02:09:41.070Z,20.08
2018-07-19T02:12:10.019Z,20.10
2018-07-19T02:14:38.891Z,20.06
2018-07-19T02:17:08.042Z,20.04
2018-07-19T02:19:36.855Z,20.02
2018-07-19T02:22:05.737Z,19.97
2018-07-19T02:24:34.692Z,19.92
2018-07-19T02:27:03.708Z,19.91
2018-07-19T02:29:33.885Z,19.98
2018-07-19T02:32:03.334Z,20.06
2018-07-19T02:34:32.808Z,20.12
2018-07-19T02:37:02.707Z,20.13
2018-07-19T02:39:31.755Z,20.16
2018-07-19T02:42:01.324Z,20.14
2018-07-19T02:44:30.683Z,20.10
2018-07-19T02:46:59.584Z,20.05
2018-07-19T02:49:28.588Z,20.05
2018-07-19T02:51:57.505Z,20.09
2018-07-19T02:54:27.330Z,20.10
2018-07-19T02:56:56.934Z,20.10
2018-07-19T02:59:25.833Z,20.28
2018-07-19T03:01:55.877Z,20.55
2018-07-19T03:04:26.003Z,20.68
2018-07-19T03:06:54.809Z,20.87
2018-07-19T03:09:24.191Z,21.13
2018-07-19T03:11:52.991Z,21.31
2018-07-19T03:14:21.772Z,21.49
2018-07-19T03:16:51.237Z,21.48
2018-07-19T03:19:20.075Z,21.40
2018-07-19T03:21:49.171Z,21.31
2018-07-19T03:24:18.026Z,21.27
2018-07-19T03:26:46.819Z,21.28
2018-07-19T03:29:15.685Z,21.19
2018-07-19T03:31:44.472Z,21.11
2018-07-19T03:34:13.186Z,21.00
2018-07-19T03:36:42.587Z,20.93
2018-07-19T03:39:11.987Z,20.87
2018-07-19T03:41:41.774Z,20.87
2018-07-19T03:44:10.539Z,20.88
2018-07-19T03:46:39.355Z,20.94
2018-07-19T03:49:08.125Z,20.96
2018-07-19T03:51:36.938Z,20.98
2018-07-19T03:54:06.306Z,20.98
2018-07-19T03:56:35.846Z,21.03
2018-07-19T03:59:04.615Z,21.08
2018-07-19T04:01:34.373Z,21.12
2018-07-19T04:04:03.892Z,21.18
2018-07-19T04:06:32.917Z,21.24
2018-07-19T04:09:01.948Z,21.27
2018-07-19T04:11:31.499Z,21.29
2018-07-19T04:14:00.364Z,21.33
2018-07-19T04:16:30.192Z,21.40
2018-07-19T04:18:59.148Z,21.45
2018-07-19T04:21:27.938Z,21.49
2018-07-19T04:23:56.935Z,21.51
2018-07-19T04:26:26.011Z,21.58
2018-07-19T04:28:54.906Z,21.66
2018-07-19T04:31:23.755Z,21.79
2018-07-19T04:33:52.538Z,21.86
2018-07-19T04:36:22.310Z,21.94
2018-07-19T04:38:51.138Z,22.02
2018-07-19T04:41:20.712Z,22.13
2018-07-19T04:43:49.511Z,22.21
2018-07-19T04:46:18.340Z,22.26
2018-07-19T04:48:47.155Z,22.30
2018-07-19T04:51:15.925Z,22.32
2018-07-19T04:53:45.437Z,22.32
2018-07-19T04:56:15.463Z,22.37
2018-07-19T04:58:44.204Z,22.48
2018-07-19T05:01:13.064Z,22.54
2018-07-19T05:03:42.962Z,22.75
2018-07-19T05:06:11.755Z,22.99
2018-07-19T05:08:40.538Z,23.15
2018-07-19T05:11:09.787Z,23.28
2018-07-19T05:13:38.554Z,23.43
2018-07-19T05:16:08.116Z,23.53
2018-07-19T05:18:36.871Z,23.66
2018-07-19T05:21:05.744Z,23.75
2018-07-19T05:23:34.560Z,23.76
2018-07-19T05:26:03.575Z,23.86
2018-07-19T05:28:32.788Z,24.00
2018-07-19T05:31:01.995Z,24.08
2018-07-19T05:33:30.995Z,24.13
2018-07-19T05:36:00.819Z,24.11
2018-07-19T05:38:29.936Z,24.17
2018-07-19T05:40:58.900Z,24.15
2018-07-19T05:43:28.494Z,24.21
2018-07-19T05:45:57.281Z,24.25
2018-07-19T05:48:26.080Z,24.28
2018-07-19T05:50:54.886Z,24.33
2018-07-19T05:53:24.289Z,24.37
2018-07-19T05:55:53.951Z,24.32
2018-07-19T05:58:22.844Z,24.31
2018-07-19T06:00:51.562Z,24.25
2018-07-19T06:03:21.745Z,24.22
2018-07-19T06:05:50.580Z,24.22
2018-07-19T06:08:19.396Z,24.32
2018-07-19T06:10:48.873Z,24.32
2018-07-19T06:13:17.972Z,24.30
2018-07-19T06:15:47.382Z,24.26
2018-07-19T06:18:16.191Z,24.37
2018-07-19T06:20:45.032Z,24.45
2018-07-19T06:23:13.901Z,24.50
2018-07-19T06:25:42.711Z,24.61
2018-07-19T06:28:11.754Z,24.67
2018-07-19T06:30:40.643Z,24.75
2018-07-19T06:33:09.508Z,24.89
2018-07-19T06:35:39.816Z,25.03
2018-07-19T06:38:08.680Z,25.12
2018-07-19T06:40:37.504Z,25.12
2018-07-19T06:43:07.105Z,25.18
2018-07-19T06:45:35.961Z,25.20
2018-07-19T06:48:04.959Z,25.23
2018-07-19T06:50:33.980Z,25.28
2018-07-19T06:53:03.663Z,25.38
2018-07-19T06:55:33.057Z,25.36
2018-07-19T06:58:02.105Z,25.42
2018-07-19T07:00:31.192Z,25.41
2018-07-19T07:03:01.209Z,25.46
2018-07-19T07:05:30.208Z,25.63
2018-07-19T07:07:59.060Z,25.76
2018-07-19T07:10:28.686Z,25.79
2018-07-19T07:12:57.489Z,25.77
2018-07-19T07:15:27.419Z,25.78
2018-07-19T07:17:56.248Z,25.90
2018-07-19T07:20:25.064Z,26.03
2018-07-19T07:22:53.937Z,26.12
2018-07-19T07:25:22.723Z,26.25
2018-07-19T07:27:51.688Z,26.35
2018-07-19T07:30:20.548Z,26.44
2018-07-19T07:32:49.322Z,26.45
2018-07-19T07:35:18.195Z,26.38
2018-07-19T07:37:47.775Z,26.42
2018-07-19T07:40:16.692Z,26.47
2018-07-19T07:42:46.155Z,26.58
2018-07-19T07:45:15.178Z,26.65
2018-07-19T07:47:44.000Z,26.67
2018-07-19T07:50:12.803Z,26.80
2018-07-19T07:52:43.722Z,27.01
2018-07-19T07:55:13.412Z,27.10
2018-07-19T07:57:42.155Z,27.12
2018-07-19T08:00:11.013Z,27.11
2018-07-19T08:02:40.804Z,27.05
2018-07-19T08:05:09.791Z,26.93
2018-07-19T08:07:38.555Z,26.86
2018-07-19T08:10:08.506Z,26.76
2018-07-19T08:12:37.264Z,26.72
2018-07-19T08:15:06.711Z,26.83
2018-07-19T08:17:36.399Z,26.94
2018-07-19T08:20:05.426Z,27.01
2018-07-19T08:22:34.264Z,27.18
2018-07-19T08:25:03.439Z,27.46
2018-07-19T08:27:32.332Z,27.66
2018-07-19T08:30:01.452Z,27.82
2018-07-19T08:32:30.504Z,27.92
2018-07-19T08:34:59.479Z,27.86
2018-07-19T08:37:29.079Z,27.89
2018-07-19T08:39:57.970Z,27.87
2018-07-19T08:42:27.499Z,27.94
2018-07-19T08:44:56.783Z,27.94
2018-07-19T08:47:25.527Z,27.94
2018-07-19T08:49:54.320Z,28.07
2018-07-19T08:52:23.851Z,28.00
2018-07-19T08:54:53.520Z,27.99
2018-07-19T08:57:22.293Z,28.06
2018-07-19T08:59:51.106Z,28.20
2018-07-19T09:02:20.654Z,28.23
2018-07-19T09:04:49.400Z,28.32
2018-07-19T09:07:18.159Z,28.44
2018-07-19T09:09:47.676Z,28.47
2018-07-19T09:12:16.475Z,28.43
2018-07-19T09:14:45.255Z,28.38
2018-07-19T09:17:14.941Z,28.30
2018-07-19T09:19:43.713Z,28.32
2018-07-19T09:22:12.499Z,28.34
2018-07-19T09:24:41.363Z,28.47
2018-07-19T09:27:10.138Z,28.64
2018-07-19T09:29:39.024Z,28.71
2018-07-19T09:32:07.926Z,28.77
2018-07-19T09:34:36.819Z,28.70
2018-07-19T09:37:06.358Z,28.76
2018-07-19T09:39:35.098Z,28.83
2018-07-19T09:42:04.419Z,28.89
2018-07-19T09:44:33.292Z,28.86
2018-07-19T09:47:02.359Z,28.73
2018-07-19T09:49:31.418Z,28.66
2018-07-19T09:52:01.381Z,28.76
2018-07-19T09:54:41.980Z,28.83
2018-07-19T09:57:11.599Z,28.93
2018-07-19T09:59:40.332Z,28.96
2018-07-19T10:02:10.353Z,28.84
2018-07-19T10:04:39.086Z,28.80
2018-07-19T10:07:08.262Z,28.81
2018-07-19T10:09:37.672Z,28.90
2018-07-19T10:12:06.545Z,28.92
2018-07-19T10:14:35.336Z,28.96
2018-07-19T10:17:04.747Z,29.01
2018-07-19T10:19:33.659Z,29.18
2018-07-19T10:22:02.678Z,29.40
2018-07-19T10:24:31.599Z,29.49
2018-07-19T10:27:00.563Z,29.67
2018-07-19T10:29:29.476Z,29.77
2018-07-19T10:31:59.336Z,29.96
2018-07-19T10:34:28.338Z,30.01
2018-07-19T10:36:58.219Z,30.12
2018-07-19T10:39:26.993Z,30.21
2018-07-19T10:41:56.698Z,30.40
2018-07-19T10:44:25.505Z,30.63
2018-07-19T10:46:54.246Z,30.88
2018-07-19T10:49:23.014Z,31.10
2018-07-19T10:51:51.815Z,31.16
2018-07-19T10:54:21.273Z,31.17
2018-07-19T10:56:50.582Z,31.27
2018-07-19T10:59:19.351Z,31.25
2018-07-19T11:01:48.897Z,31.33
2018-07-19T11:04:18.633Z,31.41
2018-07-19T11:06:47.399Z,31.47
2018-07-19T11:09:16.205Z,31.40
2018-07-19T11:11:45.955Z,31.48
2018-07-19T11:14:14.929Z,31.59
2018-07-19T11:16:44.264Z,31.52
2018-07-19T11:19:13.051Z,31.49
2018-07-19T11:21:41.899Z,31.38
2018-07-19T11:24:10.960Z,31.32
2018-07-19T11:26:39.741Z,31.30
2018-07-19T11:29:08.640Z,31.30
2018-07-19T11:31:37.439Z,31.33
2018-07-19T11:34:06.198Z,31.24
2018-07-19T11:36:35.741Z,31.11
2018-07-19T11:39:06.498Z,30.94
2018-07-19T11:41:35.872Z,30.88
2018-07-19T11:44:04.724Z,30.75
2018-07-19T11:46:33.586Z,30.67
2018-07-19T11:49:03.419Z,30.73
2018-07-19T11:51:33.192Z,30.80
2018-07-19T11:54:03.125Z,30.89
2018-07-19T11:56:33.604Z,31.03
2018-07-19T11:59:03.472Z,31.05
2018-07-19T12:01:34.136Z,30.92
2018-07-19T12:04:04.925Z,30.78
2018-07-19T12:06:33.900Z,30.68
2018-07-19T12:09:04.463Z,30.65
2018-07-19T12:11:35.003Z,30.66
2018-07-19T12:14:03.917Z,30.72
2018-07-19T12:16:34.029Z,30.76
2018-07-19T12:19:03.266Z,30.88
2018-07-19T12:21:33.255Z,31.04
2018-07-19T12:24:02.476Z,31.24
2018-07-19T12:26:33.469Z,31.31
2018-07-19T12:29:03.484Z,31.41
2018-07-19T12:31:32.601Z,31.56
2018-07-19T12:34:01.475Z,31.74
2018-07-19T12:36:32.306Z,31.91
2018-07-19T12:39:01.412Z,32.07
2018-07-19T12:41:32.215Z,32.15
2018-07-19T12:44:01.467Z,32.31
2018-07-19T12:46:31.532Z,32.41
2018-07-19T12:49:01.444Z,32.54
2018-07-19T12:51:30.579Z,32.65
2018-07-19T12:54:01.576Z,32.61
2018-07-19T12:56:32.245Z,32.53
2018-07-19T12:59:01.131Z,32.61
2018-07-19T13:01:30.648Z,32.82
2018-07-19T13:04:01.776Z,33.00
2018-07-19T13:06:31.637Z,33.31
2018-07-19T13:09:00.633Z,33.49
2018-07-19T13:11:30.631Z,33.54
2018-07-19T13:13:59.601Z,33.68
2018-07-19T13:16:30.456Z,33.48
2018-07-19T13:18:59.459Z,33.19
2018-07-19T13:21:28.465Z,32.96
2018-07-19T13:23:57.271Z,32.82
2018-07-19T13:26:26.055Z,32.61
2018-07-19T13:28:54.910Z,32.39
2018-07-19T13:31:23.732Z,32.21
2018-07-19T13:33:52.588Z,32.07
2018-07-19T13:36:22.379Z,32.04
2018-07-19T13:38:51.132Z,32.06
2018-07-19T13:41:21.435Z,32.05
2018-07-19T13:43:50.204Z,32.07
2018-07-19T13:46:18.931Z,32.04
2018-07-19T13:48:47.712Z,32.00
2018-07-19T13:51:16.494Z,31.90
2018-07-19T13:53:57.636Z,31.97
2018-07-19T13:56:27.016Z,31.95
2018-07-19T13:58:55.781Z,31.91
2018-07-19T14:01:25.362Z,31.87
2018-07-19T14:03:54.960Z,31.84
2018-07-19T14:06:23.744Z,31.67
2018-07-19T14:08:52.520Z,31.63
2018-07-19T14:11:22.061Z,31.53
2018-07-19T14:13:50.864Z,31.64
2018-07-19T14:16:20.408Z,31.68
2018-07-19T14:18:49.263Z,31.77
2018-07-19T14:21:18.029Z,31.78
2018-07-19T14:23:46.805Z,31.78
2018-07-19T14:26:15.571Z,31.87
2018-07-19T14:28:44.440Z,31.91
2018-07-19T14:31:13.200Z,31.92
2018-07-19T14:33:41.991Z,31.88
2018-07-19T14:36:11.600Z,31.87
2018-07-19T14:38:40.473Z,31.85
2018-07-19T14:41:10.304Z,31.80
2018-07-19T14:43:39.712Z,31.69
2018-07-19T14:46:08.552Z,31.49
2018-07-19T14:48:37.525Z,31.32
2018-07-19T14:51:06.349Z,31.13
2018-07-19T14:53:36.122Z,31.05
2018-07-19T14:56:05.582Z,30.97
2018-07-19T14:58:34.424Z,30.85
2018-07-19T15:01:03.565Z,30.68
2018-07-19T15:03:33.432Z,30.56
2018-07-19T15:06:02.593Z,30.47
2018-07-19T15:08:31.591Z,30.44
2018-07-19T15:11:01.683Z,30.46
2018-07-19T15:13:30.612Z,30.40
2018-07-19T15:16:00.743Z,30.38
2018-07-19T15:18:29.738Z,30.33
2018-07-19T15:20:59.460Z,30.18
2018-07-19T15:23:28.472Z,30.06
2018-07-19T15:25:57.688Z,29.97
2018-07-19T15:28:26.580Z,29.80
2018-07-19T15:30:55.443Z,29.67
2018-07-19T15:33:24.231Z,29.54
2018-07-19T15:35:53.961Z,29.49
2018-07-19T15:38:22.722Z,29.50
2018-07-19T15:40:51.523Z,29.61
2018-07-19T15:43:21.379Z,29.60
2018-07-19T15:45:50.204Z,29.49
2018-07-19T15:48:18.985Z,29.50
2018-07-19T15:50:47.824Z,29.57
2018-07-19T15:53:17.159Z,29.65
2018-07-19T15:55:46.678Z,29.64
2018-07-19T15:58:15.520Z,29.53
2018-07-19T16:00:44.329Z,29.41
2018-07-19T16:03:13.912Z,29.27
2018-07-19T16:05:42.775Z,29.17
2018-07-19T16:08:11.563Z,29.01
2018-07-19T16:10:41.018Z,28.97
2018-07-19T16:13:09.812Z,28.93
2018-07-19T16:15:39.191Z,28.94
2018-07-19T16:18:08.079Z,28.93
2018-07-19T16:20:36.953Z,28.92
2018-07-19T16:23:05.883Z,28.93
2018-07-19T16:25:34.696Z,28.86
2018-07-19T16:28:03.889Z,28.81
2018-07-19T16:30:32.996Z,28.81
2018-07-19T16:33:02.406Z,28.89
2018-07-19T16:35:32.821Z,28.93
2018-07-19T16:38:01.970Z,28.99
2018-07-19T16:40:31.318Z,29.03
2018-07-19T16:43:01.642Z,29.08
2018-07-19T16:45:30.535Z,29.07
2018-07-19T16:47:59.526Z,29.07
2018-07-19T16:50:28.567Z,29.24
2018-07-19T16:52:58.631Z,29.51
2018-07-19T16:55:28.221Z,29.65
2018-07-19T16:57:57.032Z,29.83
2018-07-19T17:00:25.850Z,29.99
2018-07-19T17:02:55.092Z,30.21
2018-07-19T17:05:23.886Z,30.31
2018-07-19T17:07:52.673Z,30.47
2018-07-19T17:10:22.155Z,30.52
2018-07-19T17:12:50.967Z,30.20
2018-07-19T17:15:20.470Z,29.87
2018-07-19T17:17:49.277Z,29.79
2018-07-19T17:20:18.040Z,29.84
2018-07-19T17:22:46.865Z,30.09
2018-07-19T17:25:15.656Z,30.32
2018-07-19T17:27:44.534Z,30.68
2018-07-19T17:30:13.364Z,31.04
2018-07-19T17:32:42.135Z,31.18
2018-07-19T17:35:10.872Z,30.75
2018-07-19T17:37:40.574Z,30.30
2018-07-19T17:40:09.320Z,29.85
2018-07-19T17:42:39.044Z,29.78
2018-07-19T17:45:07.915Z,29.36
2018-07-19T17:47:36.662Z,29.07
2018-07-19T17:50:05.680Z,28.82
2018-07-19T17:52:34.983Z,28.67
2018-07-19T17:55:04.916Z,28.42
2018-07-19T17:57:33.840Z,28.13
2018-07-19T18:00:02.693Z,27.96
2018-07-19T18:02:33.179Z,27.74
2018-07-19T18:05:02.510Z,28.13
2018-07-19T18:07:32.333Z,28.58
2018-07-19T18:10:03.408Z,28.94
2018-07-19T18:12:32.647Z,28.98
2018-07-19T18:15:01.953Z,28.69
2018-07-19T18:17:32.670Z,28.53
2018-07-19T18:20:02.454Z,28.57
2018-07-19T18:22:32.419Z,28.72
2018-07-19T18:25:01.989Z,28.91
2018-07-19T18:27:31.859Z,28.72
2018-07-19T18:30:01.247Z,28.63
2018-07-19T18:32:30.376Z,28.55
2018-07-19T18:34:59.144Z,28.71
2018-07-19T18:37:30.410Z,28.82
2018-07-19T18:39:59.256Z,28.62
2018-07-19T18:42:29.418Z,28.36
2018-07-19T18:44:58.175Z,28.18
2018-07-19T18:47:27.031Z,27.95
2018-07-19T18:49:55.818Z,27.71
2018-07-19T18:52:25.349Z,27.50
2018-07-19T18:54:54.057Z,27.30
2018-07-19T18:57:23.413Z,27.18
2018-07-19T18:59:52.174Z,27.13
2018-07-19T19:02:21.407Z,27.12
2018-07-19T19:04:50.192Z,27.07
2018-07-19T19:07:19.016Z,26.95
2018-07-19T19:09:48.410Z,26.88
2018-07-19T19:12:17.200Z,26.80
2018-07-19T19:14:45.951Z,26.75
2018-07-19T19:17:15.432Z,26.69
2018-07-19T19:19:44.280Z,26.63
2018-07-19T19:22:13.131Z,26.57
2018-07-19T19:24:41.989Z,26.45
2018-07-19T19:27:10.752Z,26.38
2018-07-19T19:29:39.627Z,26.30
2018-07-19T19:32:08.764Z,26.22
2018-07-19T19:34:37.494Z,26.15
2018-07-19T19:37:06.857Z,26.05
2018-07-19T19:39:35.577Z,25.96
2018-07-19T19:42:05.116Z,25.89
2018-07-19T19:44:33.951Z,25.83
2018-07-19T19:47:03.255Z,25.75
2018-07-19T19:49:33.053Z,25.68
2018-07-19T19:52:03.037Z,25.63
2018-07-19T19:54:33.081Z,25.58
2018-07-19T19:57:02.894Z,25.48
2018-07-19T19:59:31.854Z,25.41
2018-07-19T20:02:01.650Z,25.34
2018-07-19T20:04:31.384Z,25.29
2018-07-19T20:07:01.427Z,25.21
2018-07-19T20:09:31.256Z,25.15
2018-07-19T20:12:00.447Z,25.07
2018-07-19T20:14:29.427Z,25.03
2018-07-19T20:16:59.378Z,24.96
2018-07-19T20:19:28.167Z,24.91
2018-07-19T20:21:56.907Z,24.83
2018-07-19T20:24:25.687Z,24.75
2018-07-19T20:26:54.451Z,24.68
2018-07-19T20:29:23.307Z,24.57
2018-07-19T20:31:52.163Z,24.48
2018-07-19T20:34:21.271Z,24.35
2018-07-19T20:36:50.897Z,24.24
2018-07-19T20:39:19.664Z,24.15
2018-07-19T20:41:48.940Z,24.10
2018-07-19T20:44:17.715Z,24.04
2018-07-19T20:46:46.456Z,24.00
2018-07-19T20:49:15.246Z,23.95
2018-07-19T20:51:43.990Z,23.86
2018-07-19T20:54:13.596Z,23.76
2018-07-19T20:56:42.975Z,23.72
2018-07-19T20:59:11.738Z,23.65
2018-07-19T21:01:41.427Z,23.64
2018-07-19T21:04:10.628Z,23.61
2018-07-19T21:06:39.380Z,23.61
2018-07-19T21:09:10.043Z,23.59
2018-07-19T21:11:39.599Z,23.56
2018-07-19T21:14:09.559Z,23.53
2018-07-19T21:16:39.261Z,23.49
2018-07-19T21:19:08.022Z,23.41
2018-07-19T21:21:36.763Z,23.34
2018-07-19T21:24:05.607Z,23.29
2018-07-19T21:26:34.386Z,23.22
2018-07-19T21:29:04.063Z,23.17
2018-07-19T21:31:32.922Z,23.13
2018-07-19T21:34:01.895Z,23.05
2018-07-19T21:36:32.479Z,22.95
2018-07-19T21:39:01.471Z,22.84
2018-07-19T21:41:31.267Z,22.72
2018-07-19T21:44:00.418Z,22.67
2018-07-19T21:46:29.457Z,22.61
2018-07-19T21:48:58.263Z,22.56
2018-07-19T21:51:27.059Z,22.50
2018-07-19T21:53:56.874Z,22.49
2018-07-19T21:56:26.331Z,22.46
2018-07-19T21:58:55.095Z,22.43
2018-07-19T22:01:24.740Z,22.40
2018-07-19T22:03:54.374Z,22.37
2018-07-19T22:06:23.166Z,22.34
2018-07-19T22:08:51.962Z,22.31
2018-07-19T22:11:21.723Z,22.28
2018-07-19T22:13:50.506Z,22.25
2018-07-19T22:16:19.811Z,22.20
2018-07-19T22:18:48.679Z,22.17
2018-07-19T22:21:17.515Z,22.11
2018-07-19T22:23:46.359Z,21.99
2018-07-19T22:26:15.173Z,21.93
2018-07-19T22:28:44.225Z,21.86
2018-07-19T22:31:13.464Z,21.80
2018-07-19T22:33:42.215Z,21.76
2018-07-19T22:36:11.574Z,21.74
2018-07-19T22:38:40.331Z,21.69
2018-07-19T22:41:09.227Z,21.63
2018-07-19T22:43:38.445Z,21.60
2018-07-19T22:46:07.288Z,21.57
2018-07-19T22:48:36.078Z,21.54
2018-07-19T22:51:04.945Z,21.49
2018-07-19T22:53:34.423Z,21.41
2018-07-19T22:56:04.429Z,21.35
2018-07-19T22:58:33.328Z,21.31
2018-07-19T23:01:02.621Z,21.28
2018-07-19T23:03:33.491Z,21.24
2018-07-19T23:06:02.487Z,21.16
2018-07-19T23:08:31.861Z,21.15
2018-07-19T23:11:01.725Z,21.16
2018-07-19T23:13:30.769Z,21.17
2018-07-19T23:16:00.646Z,21.19
2018-07-19T23:18:31.798Z,21.22
2018-07-19T23:21:00.718Z,21.23
2018-07-19T23:23:29.843Z,21.25
2018-07-19T23:25:58.701Z,21.24
2018-07-19T23:28:27.774Z,21.26
2018-07-19T23:30:56.702Z,21.25
2018-07-19T23:33:26.179Z,21.23
2018-07-19T23:36:00.168Z,21.19
2018-07-19T23:38:34.078Z,21.13
2018-07-19T23:41:06.272Z,21.09
2018-07-19T23:43:39.321Z,21.06
2018-07-19T23:46:17.951Z,21.06
2018-07-19T23:48:47.042Z,21.01
2018-07-19T23:51:15.847Z,20.97
2018-07-19T23:53:45.403Z,20.99
2018-07-19T23:56:14.792Z,21.02
2018-07-19T23:58:43.600Z,21.08
